sensor_id;sensor_type;location;lat;lon;timestamp;pressure;altitude;pressure_sealevel;temperature;humidity
10992;BME280;5549;47.028;15.514;2022-12-13T00:01:49;96149.66;;;-1.92;48.85
10992;BME280;5549;47.028;15.514;2022-12-13T00:04:20;96150.44;;;-1.90;49.01
10992;BME280;5549;47.028;15.514;2022-12-13T00:06:48;96155.56;;;-1.90;48.89
10992;BME280;5549;47.028;15.514;2022-12-13T00:09:19;96151.25;;;-1.89;49.45
10992;BME280;5549;47.028;15.514;2022-12-13T00:11:48;96146.25;;;-1.92;49.28
10992;BME280;5549;47.028;15.514;2022-12-13T00:14:18;96143.94;;;-1.99;49.11
10992;BME280;5549;47.028;15.514;2022-12-13T00:16:47;96143.53;;;-2.10;48.91
10992;BME280;5549;47.028;15.514;2022-12-13T00:19:18;96148.09;;;-2.16;48.99
10992;BME280;5549;47.028;15.514;2022-12-13T00:21:46;96146.53;;;-2.20;49.15
10992;BME280;5549;47.028;15.514;2022-12-13T00:24:16;96149.34;;;-2.27;48.83
10992;BME280;5549;47.028;15.514;2022-12-13T00:26:46;96145.34;;;-2.34;49.30
10992;BME280;5549;47.028;15.514;2022-12-13T00:29:15;96143.94;;;-2.41;48.71
10992;BME280;5549;47.028;15.514;2022-12-13T00:31:44;96146.09;;;-2.52;49.06
10992;BME280;5549;47.028;15.514;2022-12-13T00:34:14;96151.34;;;-2.55;49.07
10992;BME280;5549;47.028;15.514;2022-12-13T00:36:46;96158.16;;;-2.54;49.53
10992;BME280;5549;47.028;15.514;2022-12-13T00:39:15;96150.50;;;-2.55;49.52
10992;BME280;5549;47.028;15.514;2022-12-13T00:41:44;96148.13;;;-2.60;49.27
10992;BME280;5549;47.028;15.514;2022-12-13T00:44:13;96145.97;;;-2.71;50.08
10992;BME280;5549;47.028;15.514;2022-12-13T00:46:41;96147.81;;;-2.74;49.77
10992;BME280;5549;47.028;15.514;2022-12-13T00:49:11;96149.84;;;-2.82;50.21
10992;BME280;5549;47.028;15.514;2022-12-13T00:51:40;96154.09;;;-2.81;50.65
10992;BME280;5549;47.028;15.514;2022-12-13T00:54:10;96154.22;;;-2.84;50.11
10992;BME280;5549;47.028;15.514;2022-12-13T00:56:40;96153.16;;;-3.02;51.09
10992;BME280;5549;47.028;15.514;2022-12-13T00:59:11;96156.91;;;-3.11;52.04
10992;BME280;5549;47.028;15.514;2022-12-13T01:01:39;96157.09;;;-3.15;51.04
10992;BME280;5549;47.028;15.514;2022-12-13T01:04:11;96160.00;;;-3.25;51.66
10992;BME280;5549;47.028;15.514;2022-12-13T01:06:41;96162.66;;;-3.28;51.66
10992;BME280;5549;47.028;15.514;2022-12-13T01:09:15;96164.28;;;-3.25;51.79
10992;BME280;5549;47.028;15.514;2022-12-13T01:11:44;96162.63;;;-3.26;51.90
10992;BME280;5549;47.028;15.514;2022-12-13T01:14:12;96165.06;;;-3.23;51.81
10992;BME280;5549;47.028;15.514;2022-12-13T01:16:40;96162.28;;;-3.17;51.58
10992;BME280;5549;47.028;15.514;2022-12-13T01:19:07;96169.19;;;-3.19;51.45
10992;BME280;5549;47.028;15.514;2022-12-13T01:21:36;96164.06;;;-3.19;51.63
10992;BME280;5549;47.028;15.514;2022-12-13T01:24:06;96161.31;;;-3.14;52.12
10992;BME280;5549;47.028;15.514;2022-12-13T01:26:33;96161.03;;;-3.07;52.29
10992;BME280;5549;47.028;15.514;2022-12-13T01:29:03;96168.53;;;-3.01;53.70
10992;BME280;5549;47.028;15.514;2022-12-13T01:31:32;96168.28;;;-2.95;54.27
10992;BME280;5549;47.028;15.514;2022-12-13T01:34:03;96174.28;;;-2.94;53.96
10992;BME280;5549;47.028;15.514;2022-12-13T01:36:37;96177.72;;;-2.95;52.75
10992;BME280;5549;47.028;15.514;2022-12-13T01:39:06;96173.84;;;-3.05;52.60
10992;BME280;5549;47.028;15.514;2022-12-13T01:41:34;96165.50;;;-3.12;53.92
10992;BME280;5549;47.028;15.514;2022-12-13T01:44:04;96169.69;;;-3.09;54.22
10992;BME280;5549;47.028;15.514;2022-12-13T01:46:33;96161.81;;;-3.05;53.80
10992;BME280;5549;47.028;15.514;2022-12-13T01:49:07;96161.72;;;-3.02;53.51
10992;BME280;5549;47.028;15.514;2022-12-13T01:51:44;96170.97;;;-2.98;53.41
10992;BME280;5549;47.028;15.514;2022-12-13T01:54:18;96167.47;;;-2.95;53.34
10992;BME280;5549;47.028;15.514;2022-12-13T01:56:53;96161.47;;;-2.96;53.17
10992;BME280;5549;47.028;15.514;2022-12-13T01:59:22;96162.44;;;-2.98;52.56
10992;BME280;5549;47.028;15.514;2022-12-13T02:01:50;96167.75;;;-3.03;53.20
10992;BME280;5549;47.028;15.514;2022-12-13T02:04:26;96166.28;;;-3.10;52.44
10992;BME280;5549;47.028;15.514;2022-12-13T02:06:57;96170.03;;;-3.18;52.80
10992;BME280;5549;47.028;15.514;2022-12-13T02:09:28;96174.44;;;-3.22;52.66
10992;BME280;5549;47.028;15.514;2022-12-13T02:11:55;96171.03;;;-3.22;52.71
10992;BME280;5549;47.028;15.514;2022-12-13T02:14:25;96160.72;;;-3.21;53.28
10992;BME280;5549;47.028;15.514;2022-12-13T02:17:03;96163.84;;;-3.36;52.96
10992;BME280;5549;47.028;15.514;2022-12-13T02:26:51;96158.75;;;-3.63;53.48
10992;BME280;5549;47.028;15.514;2022-12-13T02:32:37;96168.84;;;-4.08;54.81
10992;BME280;5549;47.028;15.514;2022-12-13T02:35:10;96168.22;;;-4.14;55.62
10992;BME280;5549;47.028;15.514;2022-12-13T02:37:47;96169.50;;;-4.28;55.84
10992;BME280;5549;47.028;15.514;2022-12-13T02:40:22;96171.28;;;-4.30;56.02
10992;BME280;5549;47.028;15.514;2022-12-13T02:43:01;96166.34;;;-4.36;56.19
10992;BME280;5549;47.028;15.514;2022-12-13T02:45:37;96165.06;;;-4.49;56.46
10992;BME280;5549;47.028;15.514;2022-12-13T02:48:12;96160.44;;;-4.38;56.64
10992;BME280;5549;47.028;15.514;2022-12-13T02:50:41;96158.91;;;-4.43;57.09
10992;BME280;5549;47.028;15.514;2022-12-13T02:53:12;96155.59;;;-4.21;56.24
10992;BME280;5549;47.028;15.514;2022-12-13T02:55:40;96153.63;;;-4.12;56.08
10992;BME280;5549;47.028;15.514;2022-12-13T02:58:11;96152.56;;;-4.07;55.35
10992;BME280;5549;47.028;15.514;2022-12-13T03:00:52;96156.75;;;-4.04;55.67
10992;BME280;5549;47.028;15.514;2022-12-13T03:03:35;96165.34;;;-4.05;55.35
10992;BME280;5549;47.028;15.514;2022-12-13T03:06:17;96159.28;;;-4.03;55.51
10992;BME280;5549;47.028;15.514;2022-12-13T03:09:16;96153.34;;;-4.05;55.02
10992;BME280;5549;47.028;15.514;2022-12-13T03:12:10;96148.81;;;-3.97;55.73
10992;BME280;5549;47.028;15.514;2022-12-13T03:15:06;96147.88;;;-3.94;55.11
10992;BME280;5549;47.028;15.514;2022-12-13T03:17:44;96148.81;;;-3.97;55.47
10992;BME280;5549;47.028;15.514;2022-12-13T03:20:17;96147.91;;;-3.96;55.57
10992;BME280;5549;47.028;15.514;2022-12-13T03:22:52;96149.38;;;-3.89;55.35
10992;BME280;5549;47.028;15.514;2022-12-13T03:25:29;96147.34;;;-3.79;55.04
10992;BME280;5549;47.028;15.514;2022-12-13T03:28:00;96151.44;;;-3.73;54.69
10992;BME280;5549;47.028;15.514;2022-12-13T03:30:29;96152.09;;;-3.68;54.46
10992;BME280;5549;47.028;15.514;2022-12-13T03:32:57;96144.50;;;-3.71;54.03
10992;BME280;5549;47.028;15.514;2022-12-13T03:35:26;96143.56;;;-3.69;53.75
10992;BME280;5549;47.028;15.514;2022-12-13T03:37:57;96138.75;;;-3.78;53.67
10992;BME280;5549;47.028;15.514;2022-12-13T03:40:27;96135.50;;;-3.83;54.21
10992;BME280;5549;47.028;15.514;2022-12-13T03:42:58;96138.09;;;-3.83;54.33
10992;BME280;5549;47.028;15.514;2022-12-13T03:45:26;96132.91;;;-3.81;54.08
10992;BME280;5549;47.028;15.514;2022-12-13T03:47:53;96124.47;;;-3.85;53.69
10992;BME280;5549;47.028;15.514;2022-12-13T03:50:21;96132.16;;;-3.85;53.97
10992;BME280;5549;47.028;15.514;2022-12-13T03:52:50;96133.25;;;-3.92;53.91
10992;BME280;5549;47.028;15.514;2022-12-13T03:55:18;96132.47;;;-3.94;54.08
10992;BME280;5549;47.028;15.514;2022-12-13T03:57:46;96134.94;;;-3.91;53.76
10992;BME280;5549;47.028;15.514;2022-12-13T04:00:14;96137.28;;;-3.85;54.12
10992;BME280;5549;47.028;15.514;2022-12-13T04:02:42;96149.06;;;-4.04;57.81
10992;BME280;5549;47.028;15.514;2022-12-13T04:05:12;96153.25;;;-4.02;58.41
10992;BME280;5549;47.028;15.514;2022-12-13T04:07:42;96153.88;;;-3.95;57.75
10992;BME280;5549;47.028;15.514;2022-12-13T04:10:11;96156.34;;;-3.92;57.58
10992;BME280;5549;47.028;15.514;2022-12-13T04:12:39;96161.38;;;-3.89;57.73
10992;BME280;5549;47.028;15.514;2022-12-13T04:15:24;96155.31;;;-3.87;57.46
10992;BME280;5549;47.028;15.514;2022-12-13T04:17:52;96151.00;;;-3.86;56.26
10992;BME280;5549;47.028;15.514;2022-12-13T04:20:20;96151.84;;;-3.85;56.81
10992;BME280;5549;47.028;15.514;2022-12-13T04:22:50;96152.78;;;-3.88;56.30
10992;BME280;5549;47.028;15.514;2022-12-13T04:25:19;96152.84;;;-3.90;55.92
10992;BME280;5549;47.028;15.514;2022-12-13T04:27:46;96159.69;;;-3.90;56.15
10992;BME280;5549;47.028;15.514;2022-12-13T04:30:14;96154.69;;;-3.93;55.46
10992;BME280;5549;47.028;15.514;2022-12-13T04:32:42;96149.81;;;-4.01;55.93
10992;BME280;5549;47.028;15.514;2022-12-13T04:35:09;96149.97;;;-4.05;56.06
10992;BME280;5549;47.028;15.514;2022-12-13T04:37:39;96148.28;;;-4.06;56.13
10992;BME280;5549;47.028;15.514;2022-12-13T04:40:08;96144.09;;;-4.09;56.13
10992;BME280;5549;47.028;15.514;2022-12-13T04:42:38;96147.59;;;-4.11;56.41
10992;BME280;5549;47.028;15.514;2022-12-13T04:45:10;96148.59;;;-4.15;56.32
10992;BME280;5549;47.028;15.514;2022-12-13T04:47:40;96153.72;;;-4.15;56.53
10992;BME280;5549;47.028;15.514;2022-12-13T04:50:09;96148.50;;;-4.12;57.13
10992;BME280;5549;47.028;15.514;2022-12-13T04:52:37;96158.84;;;-4.15;58.22
10992;BME280;5549;47.028;15.514;2022-12-13T04:55:08;96152.03;;;-4.16;58.35
10992;BME280;5549;47.028;15.514;2022-12-13T04:57:37;96150.25;;;-4.14;58.38
10992;BME280;5549;47.028;15.514;2022-12-13T05:00:07;96147.66;;;-4.13;58.44
10992;BME280;5549;47.028;15.514;2022-12-13T05:02:38;96151.00;;;-4.11;57.89
10992;BME280;5549;47.028;15.514;2022-12-13T05:05:07;96145.13;;;-4.14;58.20
10992;BME280;5549;47.028;15.514;2022-12-13T05:07:38;96141.69;;;-4.13;57.57
10992;BME280;5549;47.028;15.514;2022-12-13T05:10:07;96148.59;;;-4.15;57.64
10992;BME280;5549;47.028;15.514;2022-12-13T05:12:36;96146.91;;;-4.16;57.71
10992;BME280;5549;47.028;15.514;2022-12-13T05:15:06;96148.69;;;-4.18;57.41
10992;BME280;5549;47.028;15.514;2022-12-13T05:17:37;96147.00;;;-4.20;57.44
10992;BME280;5549;47.028;15.514;2022-12-13T05:20:06;96145.25;;;-4.17;57.45
10992;BME280;5549;47.028;15.514;2022-12-13T05:22:33;96148.59;;;-4.15;57.40
10992;BME280;5549;47.028;15.514;2022-12-13T05:25:03;96146.03;;;-4.15;58.13
10992;BME280;5549;47.028;15.514;2022-12-13T05:27:31;96147.69;;;-4.14;57.82
10992;BME280;5549;47.028;15.514;2022-12-13T05:30:00;96151.06;;;-4.12;57.63
10992;BME280;5549;47.028;15.514;2022-12-13T05:32:27;96151.06;;;-4.12;57.63
10992;BME280;5549;47.028;15.514;2022-12-13T05:35:02;96152.78;;;-4.13;57.70
10992;BME280;5549;47.028;15.514;2022-12-13T05:37:31;96158.75;;;-4.12;58.33
10992;BME280;5549;47.028;15.514;2022-12-13T05:39:58;96155.38;;;-4.14;57.65
10992;BME280;5549;47.028;15.514;2022-12-13T05:42:28;96148.59;;;-4.15;58.12
10992;BME280;5549;47.028;15.514;2022-12-13T05:44:55;96145.13;;;-4.14;57.96
10992;BME280;5549;47.028;15.514;2022-12-13T05:47:28;96142.63;;;-4.16;57.06
10992;BME280;5549;47.028;15.514;2022-12-13T05:49:55;96145.34;;;-4.21;57.16
10992;BME280;5549;47.028;15.514;2022-12-13T05:52:23;96135.38;;;-4.30;56.81
10992;BME280;5549;47.028;15.514;2022-12-13T05:54:54;96138.84;;;-4.31;57.16
10992;BME280;5549;47.028;15.514;2022-12-13T05:57:22;96140.63;;;-4.33;57.17
10992;BME280;5549;47.028;15.514;2022-12-13T05:59:50;96145.69;;;-4.31;57.15
10992;BME280;5549;47.028;15.514;2022-12-13T06:02:17;96138.06;;;-4.33;57.25
10992;BME280;5549;47.028;15.514;2022-12-13T06:04:46;96135.00;;;-4.44;57.11
10992;BME280;5549;47.028;15.514;2022-12-13T06:07:14;96132.53;;;-4.47;57.25
10992;BME280;5549;47.028;15.514;2022-12-13T06:09:44;96132.63;;;-4.50;57.65
10992;BME280;5549;47.028;15.514;2022-12-13T06:12:11;96127.59;;;-4.53;57.85
10992;BME280;5549;47.028;15.514;2022-12-13T06:14:41;96128.34;;;-4.49;57.68
10992;BME280;5549;47.028;15.514;2022-12-13T06:17:08;96136.06;;;-4.51;57.82
10992;BME280;5549;47.028;15.514;2022-12-13T06:19:36;96136.06;;;-4.51;57.71
10992;BME280;5549;47.028;15.514;2022-12-13T06:22:07;96140.28;;;-4.48;57.83
10992;BME280;5549;47.028;15.514;2022-12-13T06:24:34;96136.72;;;-4.44;57.67
10992;BME280;5549;47.028;15.514;2022-12-13T06:27:02;96134.91;;;-4.41;57.49
10992;BME280;5549;47.028;15.514;2022-12-13T06:29:30;96135.16;;;-4.48;57.25
10992;BME280;5549;47.028;15.514;2022-12-13T06:32:01;96138.69;;;-4.53;57.60
10992;BME280;5549;47.028;15.514;2022-12-13T06:34:30;96139.53;;;-4.52;57.46
10992;BME280;5549;47.028;15.514;2022-12-13T06:36:58;96131.78;;;-4.50;57.37
10992;BME280;5549;47.028;15.514;2022-12-13T06:39:28;96132.44;;;-4.44;57.55
10992;BME280;5549;47.028;15.514;2022-12-13T06:41:56;96130.25;;;-4.30;57.16
10992;BME280;5549;47.028;15.514;2022-12-13T06:44:26;96124.41;;;-4.08;56.80
10992;BME280;5549;47.028;15.514;2022-12-13T06:46:56;96127.03;;;-3.85;56.33
10992;BME280;5549;47.028;15.514;2022-12-13T06:49:23;96130.41;;;-3.60;55.98
10992;BME280;5549;47.028;15.514;2022-12-13T06:51:51;96127.78;;;-3.33;55.26
10992;BME280;5549;47.028;15.514;2022-12-13T06:54:21;96129.31;;;-3.06;54.35
10992;BME280;5549;47.028;15.514;2022-12-13T06:56:50;96127.50;;;-2.80;54.65
10992;BME280;5549;47.028;15.514;2022-12-13T06:59:18;96130.13;;;-2.60;53.99
10992;BME280;5549;47.028;15.514;2022-12-13T07:01:49;96126.59;;;-2.36;54.15
10992;BME280;5549;47.028;15.514;2022-12-13T07:04:18;96132.66;;;-2.16;53.12
10992;BME280;5549;47.028;15.514;2022-12-13T07:06:46;96127.00;;;-2.04;52.00
10992;BME280;5549;47.028;15.514;2022-12-13T07:09:14;96119.09;;;-2.00;51.13
10992;BME280;5549;47.028;15.514;2022-12-13T07:11:41;96123.03;;;-1.91;50.29
10992;BME280;5549;47.028;15.514;2022-12-13T07:14:13;96126.69;;;-1.76;50.76
10992;BME280;5549;47.028;15.514;2022-12-13T07:16:40;96114.66;;;-1.55;50.42
10992;BME280;5549;47.028;15.514;2022-12-13T07:19:09;96121.78;;;-1.42;49.95
10992;BME280;5549;47.028;15.514;2022-12-13T07:21:37;96122.22;;;-1.32;49.39
10992;BME280;5549;47.028;15.514;2022-12-13T07:24:06;96126.69;;;-1.17;49.50
10992;BME280;5549;47.028;15.514;2022-12-13T07:26:34;96130.44;;;-1.05;49.15
10992;BME280;5549;47.028;15.514;2022-12-13T07:29:03;96137.53;;;-0.91;49.39
10992;BME280;5549;47.028;15.514;2022-12-13T07:31:35;96142.69;;;-0.91;49.65
10992;BME280;5549;47.028;15.514;2022-12-13T07:34:03;96146.03;;;-0.89;50.21
10992;BME280;5549;47.028;15.514;2022-12-13T07:36:30;96145.75;;;-0.83;50.53
10992;BME280;5549;47.028;15.514;2022-12-13T07:38:58;96144.72;;;-0.79;50.58
10992;BME280;5549;47.028;15.514;2022-12-13T07:41:26;96150.44;;;-0.73;50.61
10992;BME280;5549;47.028;15.514;2022-12-13T07:43:54;96153.47;;;-0.65;50.24
10992;BME280;5549;47.028;15.514;2022-12-13T07:46:25;96147.81;;;-0.54;50.03
10992;BME280;5549;47.028;15.514;2022-12-13T07:48:54;96146.69;;;-0.48;49.98
10992;BME280;5549;47.028;15.514;2022-12-13T07:51:22;96138.59;;;-0.41;49.74
10992;BME280;5549;47.028;15.514;2022-12-13T07:53:52;96135.50;;;-0.30;48.95
10992;BME280;5549;47.028;15.514;2022-12-13T07:56:20;96134.91;;;-0.18;48.60
10992;BME280;5549;47.028;15.514;2022-12-13T07:58:47;96139.63;;;-0.09;47.92
10992;BME280;5549;47.028;15.514;2022-12-13T08:01:17;96134.06;;;0.01;47.28
10992;BME280;5549;47.028;15.514;2022-12-13T08:03:47;96127.44;;;0.12;47.39
10992;BME280;5549;47.028;15.514;2022-12-13T08:06:16;96133.81;;;0.40;47.79
10992;BME280;5549;47.028;15.514;2022-12-13T08:08:44;96140.66;;;0.74;47.17
10992;BME280;5549;47.028;15.514;2022-12-13T08:11:13;96140.03;;;1.02;46.86
10992;BME280;5549;47.028;15.514;2022-12-13T08:13:42;96144.16;;;1.21;46.63
10992;BME280;5549;47.028;15.514;2022-12-13T08:16:13;96149.25;;;1.23;46.26
10992;BME280;5549;47.028;15.514;2022-12-13T08:18:43;96145.25;;;1.33;45.55
10992;BME280;5549;47.028;15.514;2022-12-13T08:21:12;96148.50;;;1.52;45.09
10992;BME280;5549;47.028;15.514;2022-12-13T08:23:42;96143.72;;;1.60;44.47
10992;BME280;5549;47.028;15.514;2022-12-13T08:26:09;96142.06;;;1.75;44.56
10992;BME280;5549;47.028;15.514;2022-12-13T08:28:37;96140.91;;;1.81;43.69
10992;BME280;5549;47.028;15.514;2022-12-13T08:31:07;96137.97;;;1.87;43.82
10992;BME280;5549;47.028;15.514;2022-12-13T08:33:37;96136.56;;;2.11;43.74
10992;BME280;5549;47.028;15.514;2022-12-13T08:36:10;96134.31;;;2.35;43.62
10992;BME280;5549;47.028;15.514;2022-12-13T08:38:38;96127.88;;;2.71;43.24
10992;BME280;5549;47.028;15.514;2022-12-13T08:41:07;96125.09;;;2.88;42.27
10992;BME280;5549;47.028;15.514;2022-12-13T08:43:36;96126.69;;;2.90;42.08
10992;BME280;5549;47.028;15.514;2022-12-13T08:46:04;96127.03;;;2.99;42.31
10992;BME280;5549;47.028;15.514;2022-12-13T08:48:32;96125.66;;;3.07;42.23
10992;BME280;5549;47.028;15.514;2022-12-13T08:51:04;96124.22;;;3.30;41.83
10992;BME280;5549;47.028;15.514;2022-12-13T08:53:35;96129.13;;;3.35;41.53
10992;BME280;5549;47.028;15.514;2022-12-13T08:56:06;96125.66;;;3.63;41.19
10992;BME280;5549;47.028;15.514;2022-12-13T08:58:38;96141.06;;;3.93;40.97
10992;BME280;5549;47.028;15.514;2022-12-13T09:01:07;96135.28;;;4.14;40.38
10992;BME280;5549;47.028;15.514;2022-12-13T09:03:35;96133.69;;;4.39;40.39
10992;BME280;5549;47.028;15.514;2022-12-13T09:06:07;96139.63;;;4.66;39.73
10992;BME280;5549;47.028;15.514;2022-12-13T09:08:38;96137.78;;;4.94;39.51
10992;BME280;5549;47.028;15.514;2022-12-13T09:11:09;96125.66;;;5.18;38.63
10992;BME280;5549;47.028;15.514;2022-12-13T09:13:37;96130.75;;;5.45;38.53
10992;BME280;5549;47.028;15.514;2022-12-13T09:16:12;96126.69;;;5.77;37.88
10992;BME280;5549;47.028;15.514;2022-12-13T09:18:41;96122.44;;;6.00;37.02
10992;BME280;5549;47.028;15.514;2022-12-13T09:21:11;96119.78;;;6.13;36.51
10992;BME280;5549;47.028;15.514;2022-12-13T09:23:40;96106.06;;;6.22;36.88
10992;BME280;5549;47.028;15.514;2022-12-13T09:26:14;96111.50;;;6.19;37.35
10992;BME280;5549;47.028;15.514;2022-12-13T09:28:43;96112.25;;;5.97;37.02
10992;BME280;5549;47.028;15.514;2022-12-13T09:31:16;96104.16;;;5.89;37.77
10992;BME280;5549;47.028;15.514;2022-12-13T09:33:45;96102.91;;;5.82;37.13
10992;BME280;5549;47.028;15.514;2022-12-13T09:36:16;96095.91;;;5.83;37.76
10992;BME280;5549;47.028;15.514;2022-12-13T09:38:44;96098.50;;;5.95;36.85
10992;BME280;5549;47.028;15.514;2022-12-13T09:41:26;96082.94;;;6.18;36.03
10992;BME280;5549;47.028;15.514;2022-12-13T09:43:58;96076.00;;;6.40;36.59
10992;BME280;5549;47.028;15.514;2022-12-13T09:46:30;96071.59;;;6.30;33.71
10992;BME280;5549;47.028;15.514;2022-12-13T09:49:02;96075.75;;;6.32;34.63
10992;BME280;5549;47.028;15.514;2022-12-13T09:51:32;96076.34;;;6.36;33.89
10992;BME280;5549;47.028;15.514;2022-12-13T09:54:03;96087.47;;;6.27;34.25
10992;BME280;5549;47.028;15.514;2022-12-13T09:56:33;96079.66;;;6.38;35.79
10992;BME280;5549;47.028;15.514;2022-12-13T09:59:03;96075.91;;;6.53;36.64
10992;BME280;5549;47.028;15.514;2022-12-13T10:01:33;96081.41;;;6.84;35.77
10992;BME280;5549;47.028;15.514;2022-12-13T10:04:00;96069.91;;;7.08;35.50
10992;BME280;5549;47.028;15.514;2022-12-13T10:06:31;96066.00;;;7.14;34.53
10992;BME280;5549;47.028;15.514;2022-12-13T10:09:02;96067.53;;;7.17;34.71
10992;BME280;5549;47.028;15.514;2022-12-13T10:11:34;96059.00;;;7.15;34.90
10992;BME280;5549;47.028;15.514;2022-12-13T10:14:08;96060.75;;;7.36;34.80
10992;BME280;5549;47.028;15.514;2022-12-13T10:16:42;96049.34;;;7.37;34.49
10992;BME280;5549;47.028;15.514;2022-12-13T10:19:16;96060.16;;;7.33;35.41
10992;BME280;5549;47.028;15.514;2022-12-13T10:21:46;96056.25;;;6.71;32.05
10992;BME280;5549;47.028;15.514;2022-12-13T10:24:20;96055.00;;;5.72;33.92
10992;BME280;5549;47.028;15.514;2022-12-13T10:26:52;96055.88;;;5.36;34.38
10992;BME280;5549;47.028;15.514;2022-12-13T10:29:20;96064.69;;;5.46;34.49
10992;BME280;5549;47.028;15.514;2022-12-13T10:31:51;96052.34;;;5.61;34.58
10992;BME280;5549;47.028;15.514;2022-12-13T10:34:25;96053.38;;;5.34;35.37
10992;BME280;5549;47.028;15.514;2022-12-13T10:36:56;96050.06;;;5.32;35.14
10992;BME280;5549;47.028;15.514;2022-12-13T10:39:40;96052.53;;;4.84;36.31
10992;BME280;5549;47.028;15.514;2022-12-13T10:42:15;96048.88;;;5.00;35.81
10992;BME280;5549;47.028;15.514;2022-12-13T10:44:43;96046.00;;;5.28;35.62
10992;BME280;5549;47.028;15.514;2022-12-13T10:47:15;96040.03;;;5.63;35.70
10992;BME280;5549;47.028;15.514;2022-12-13T10:49:50;96037.38;;;5.15;34.33
10992;BME280;5549;47.028;15.514;2022-12-13T10:52:25;96035.72;;;5.27;35.69
10992;BME280;5549;47.028;15.514;2022-12-13T10:54:54;96036.56;;;5.51;34.33
10992;BME280;5549;47.028;15.514;2022-12-13T10:57:27;96035.66;;;5.87;35.97
10992;BME280;5549;47.028;15.514;2022-12-13T10:59:55;96018.03;;;5.91;34.07
10992;BME280;5549;47.028;15.514;2022-12-13T11:02:35;96017.28;;;6.13;34.53
10992;BME280;5549;47.028;15.514;2022-12-13T11:05:23;96017.97;;;6.15;34.11
10992;BME280;5549;47.028;15.514;2022-12-13T11:07:52;96018.94;;;5.55;34.21
10992;BME280;5549;47.028;15.514;2022-12-13T11:10:24;96023.75;;;5.11;35.30
10992;BME280;5549;47.028;15.514;2022-12-13T11:12:59;96022.38;;;5.31;37.80
10992;BME280;5549;47.028;15.514;2022-12-13T11:15:30;96017.47;;;5.74;37.06
10992;BME280;5549;47.028;15.514;2022-12-13T11:18:04;96009.66;;;5.98;36.51
10992;BME280;5549;47.028;15.514;2022-12-13T11:20:37;96005.44;;;5.85;35.09
10992;BME280;5549;47.028;15.514;2022-12-13T11:23:12;96003.88;;;5.82;35.13
10992;BME280;5549;47.028;15.514;2022-12-13T11:25:54;95993.69;;;5.79;34.86
10992;BME280;5549;47.028;15.514;2022-12-13T11:28:50;95993.63;;;5.92;35.98
10992;BME280;5549;47.028;15.514;2022-12-13T11:31:28;95981.28;;;6.40;36.47
10992;BME280;5549;47.028;15.514;2022-12-13T11:34:13;95991.00;;;6.83;33.69
10992;BME280;5549;47.028;15.514;2022-12-13T11:36:51;95989.13;;;6.62;33.22
10992;BME280;5549;47.028;15.514;2022-12-13T11:39:28;95984.13;;;6.59;33.88
10992;BME280;5549;47.028;15.514;2022-12-13T11:42:08;95986.03;;;6.68;33.97
10992;BME280;5549;47.028;15.514;2022-12-13T11:44:44;95982.13;;;6.52;34.60
10992;BME280;5549;47.028;15.514;2022-12-13T11:47:22;95982.56;;;6.90;34.63
10992;BME280;5549;47.028;15.514;2022-12-13T11:49:56;95974.38;;;7.17;34.79
10992;BME280;5549;47.028;15.514;2022-12-13T11:52:33;95965.97;;;7.46;33.48
10992;BME280;5549;47.028;15.514;2022-12-13T11:55:07;95963.88;;;7.28;33.67
10992;BME280;5549;47.028;15.514;2022-12-13T11:57:45;95956.44;;;7.13;34.12
10992;BME280;5549;47.028;15.514;2022-12-13T12:00:29;95961.56;;;7.14;33.92
10992;BME280;5549;47.028;15.514;2022-12-13T12:03:17;95965.84;;;6.82;34.95
10992;BME280;5549;47.028;15.514;2022-12-13T12:05:53;95963.59;;;6.88;35.60
10992;BME280;5549;47.028;15.514;2022-12-13T12:08:30;95957.91;;;6.94;35.30
10992;BME280;5549;47.028;15.514;2022-12-13T12:11:06;95966.22;;;6.77;34.46
10992;BME280;5549;47.028;15.514;2022-12-13T12:13:41;95957.78;;;6.73;34.56
10992;BME280;5549;47.028;15.514;2022-12-13T12:16:29;95961.13;;;6.64;34.91
10992;BME280;5549;47.028;15.514;2022-12-13T12:18:59;95967.53;;;6.49;35.45
10992;BME280;5549;47.028;15.514;2022-12-13T12:21:35;95953.31;;;6.31;35.29
10992;BME280;5549;47.028;15.514;2022-12-13T12:24:17;95957.78;;;6.18;35.70
10992;BME280;5549;47.028;15.514;2022-12-13T12:26:58;95963.19;;;5.92;35.89
10992;BME280;5549;47.028;15.514;2022-12-13T12:30:09;95950.41;;;6.00;35.80
10992;BME280;5549;47.028;15.514;2022-12-13T12:32:48;95949.09;;;5.95;35.99
10992;BME280;5549;47.028;15.514;2022-12-13T12:35:57;95950.41;;;5.89;37.26
10992;BME280;5549;47.028;15.514;2022-12-13T12:39:17;95948.28;;;5.59;37.64
10992;BME280;5549;47.028;15.514;2022-12-13T12:42:09;95943.47;;;5.77;37.86
10992;BME280;5549;47.028;15.514;2022-12-13T12:45:01;95952.19;;;5.65;37.55
10992;BME280;5549;47.028;15.514;2022-12-13T12:47:41;95941.66;;;5.31;37.59
10992;BME280;5549;47.028;15.514;2022-12-13T12:50:35;95948.63;;;5.07;38.27
10992;BME280;5549;47.028;15.514;2022-12-13T12:53:28;95950.19;;;4.73;39.06
10992;BME280;5549;47.028;15.514;2022-12-13T12:56:13;95946.59;;;4.50;39.36
10992;BME280;5549;47.028;15.514;2022-12-13T12:58:54;95949.03;;;4.28;39.78
10992;BME280;5549;47.028;15.514;2022-12-13T13:01:41;95949.25;;;4.12;40.51
10992;BME280;5549;47.028;15.514;2022-12-13T13:04:17;95955.47;;;3.97;41.55
10992;BME280;5549;47.028;15.514;2022-12-13T13:06:52;95947.47;;;4.00;41.38
10992;BME280;5549;47.028;15.514;2022-12-13T13:09:24;95952.56;;;3.76;41.59
10992;BME280;5549;47.028;15.514;2022-12-13T13:11:54;95958.47;;;3.78;41.60
10992;BME280;5549;47.028;15.514;2022-12-13T13:14:31;95948.31;;;3.88;41.68
10992;BME280;5549;47.028;15.514;2022-12-13T13:17:44;95947.59;;;3.98;41.10
10992;BME280;5549;47.028;15.514;2022-12-13T13:20:21;95949.66;;;4.06;40.67
10992;BME280;5549;47.028;15.514;2022-12-13T13:22:54;95957.16;;;4.10;40.99
10992;BME280;5549;47.028;15.514;2022-12-13T13:25:27;95948.41;;;4.11;40.85
10992;BME280;5549;47.028;15.514;2022-12-13T13:28:03;95955.69;;;4.19;40.44
10992;BME280;5549;47.028;15.514;2022-12-13T13:30:33;95961.72;;;4.32;39.95
10992;BME280;5549;47.028;15.514;2022-12-13T13:33:40;95965.34;;;4.30;40.59
10992;BME280;5549;47.028;15.514;2022-12-13T13:36:45;95966.69;;;4.35;40.19
10992;BME280;5549;47.028;15.514;2022-12-13T13:39:16;95962.31;;;4.48;39.50
10992;BME280;5549;47.028;15.514;2022-12-13T13:42:07;95957.09;;;4.61;39.31
10992;BME280;5549;47.028;15.514;2022-12-13T13:45:00;95965.59;;;4.63;38.57